createdAt,value
2018-03-22T00:01:02.401Z,14.20
2018-03-22T00:03:30.936Z,13.67
2018-03-22T00:05:59.065Z,13.17
2018-03-22T00:08:26.691Z,15.13
2018-03-22T00:10:57.696Z,15.30
2018-03-22T00:13:25.460Z,13.23
2018-03-22T00:15:53.192Z,12.87
2018-03-22T00:18:21.002Z,13.60
2018-03-22T00:20:48.916Z,12.87
2018-03-22T00:23:16.770Z,13.97
2018-03-22T00:25:44.602Z,13.30
2018-03-22T00:28:12.412Z,14.02
2018-03-22T00:30:39.993Z,14.80
2018-03-22T00:33:07.596Z,14.27
2018-03-22T00:35:35.457Z,12.75
2018-03-22T00:38:05.875Z,13.43
2018-03-22T00:40:33.957Z,14.17
2018-03-22T00:43:01.709Z,13.33
2018-03-22T00:45:30.477Z,13.53
2018-03-22T00:47:58.064Z,13.87
2018-03-22T00:50:26.677Z,12.70
2018-03-22T00:52:55.098Z,13.17
2018-03-22T00:55:25.087Z,13.57
2018-03-22T00:57:53.760Z,15.30
2018-03-22T01:00:21.335Z,12.88
2018-03-22T01:02:48.869Z,11.90
2018-03-22T01:05:16.457Z,12.80
2018-03-22T01:07:44.020Z,13.27
2018-03-22T01:10:11.725Z,13.43
2018-03-22T01:12:39.287Z,14.10
2018-03-22T01:15:06.855Z,13.70
2018-03-22T01:17:34.395Z,12.98
2018-03-22T01:20:02.008Z,15.07
2018-03-22T01:22:29.561Z,13.27
2018-03-22T01:24:57.085Z,13.13
2018-03-22T01:27:24.659Z,13.20
2018-03-22T01:29:52.188Z,14.03
2018-03-22T01:32:19.764Z,13.77
2018-03-22T01:34:47.345Z,13.30
2018-03-22T01:37:14.923Z,14.57
2018-03-22T01:39:42.451Z,13.40
2018-03-22T01:42:10.021Z,13.20
2018-03-22T01:44:37.935Z,15.07
2018-03-22T01:47:05.496Z,13.40
2018-03-22T01:49:33.060Z,11.60
2018-03-22T01:52:00.640Z,13.87
2018-03-22T01:54:28.305Z,13.20
2018-03-22T01:56:55.857Z,12.55
2018-03-22T01:59:23.389Z,12.27
2018-03-22T02:01:50.997Z,11.13
2018-03-22T02:04:18.500Z,11.40
2018-03-22T02:06:46.060Z,11.83
2018-03-22T02:09:13.607Z,10.90
2018-03-22T02:11:41.186Z,10.93
2018-03-22T02:14:08.717Z,11.23
2018-03-22T02:16:36.283Z,12.07
2018-03-22T02:19:03.810Z,10.50
2018-03-22T02:21:31.371Z,11.07
2018-03-22T02:23:58.915Z,10.85
2018-03-22T02:26:26.460Z,11.27
2018-03-22T02:28:54.037Z,12.23
2018-03-22T02:31:21.561Z,12.27
2018-03-22T02:33:49.120Z,14.17
2018-03-22T02:36:16.669Z,11.60
2018-03-22T02:38:44.249Z,11.03
2018-03-22T02:41:11.768Z,12.07
2018-03-22T02:43:39.320Z,10.70
2018-03-22T02:46:06.850Z,11.30
2018-03-22T02:48:34.423Z,10.53
2018-03-22T02:51:05.167Z,11.20
2018-03-22T02:53:33.381Z,11.13
2018-03-22T02:56:02.090Z,10.87
2018-03-22T02:58:30.004Z,12.40
2018-03-22T03:00:57.606Z,11.07
2018-03-22T03:03:25.171Z,11.48
2018-03-22T03:05:52.896Z,12.60
2018-03-22T03:08:20.608Z,11.57
2018-03-22T03:10:48.261Z,11.97
2018-03-22T03:13:15.812Z,11.23
2018-03-22T03:15:43.513Z,13.05
2018-03-22T03:18:11.084Z,13.57
2018-03-22T03:20:38.624Z,13.97
2018-03-22T03:23:07.484Z,14.50
2018-03-22T03:25:35.012Z,13.37
2018-03-22T03:28:02.573Z,14.40
2018-03-22T03:30:30.172Z,14.23
2018-03-22T03:32:57.740Z,13.93
2018-03-22T03:35:25.284Z,14.65
2018-03-22T03:37:52.844Z,11.70
2018-03-22T03:40:20.832Z,11.77
2018-03-22T03:42:48.388Z,12.17
2018-03-22T03:45:15.956Z,13.10
2018-03-22T03:47:43.496Z,13.25
2018-03-22T03:50:11.028Z,14.03
2018-03-22T03:52:38.717Z,12.77
2018-03-22T03:55:06.249Z,13.23
2018-03-22T03:57:33.769Z,13.10
2018-03-22T04:00:01.332Z,13.47
2018-03-22T04:02:28.861Z,13.03
2018-03-22T04:04:56.412Z,13.33
2018-03-22T04:07:23.943Z,13.10
2018-03-22T04:09:51.541Z,12.80
2018-03-22T04:12:19.098Z,12.87
2018-03-22T04:14:46.656Z,12.97
2018-03-22T04:17:14.188Z,14.17
2018-03-22T04:19:41.776Z,14.13
2018-03-22T04:22:09.337Z,14.07
2018-03-22T04:24:36.888Z,13.50
2018-03-22T04:27:04.417Z,14.73
2018-03-22T04:29:31.981Z,12.90
2018-03-22T04:31:59.547Z,13.57
2018-03-22T04:34:27.099Z,12.97
2018-03-22T04:36:54.641Z,13.50
2018-03-22T04:39:22.195Z,13.03
2018-03-22T04:41:49.720Z,13.87
2018-03-22T04:44:17.268Z,12.53
2018-03-22T04:46:44.797Z,12.67
2018-03-22T04:49:12.487Z,13.93
2018-03-22T04:51:40.046Z,12.73
2018-03-22T04:54:07.683Z,13.70
2018-03-22T04:56:35.230Z,12.90
2018-03-22T04:59:02.783Z,12.33
2018-03-22T05:01:30.308Z,13.27
2018-03-22T05:03:57.876Z,13.03
2018-03-22T05:06:25.515Z,13.17
2018-03-22T05:08:53.086Z,14.30
2018-03-22T05:11:20.604Z,12.27
2018-03-22T05:13:48.167Z,12.23
2018-03-22T05:16:15.688Z,12.60
2018-03-22T05:18:43.259Z,12.07
2018-03-22T05:21:10.794Z,12.20
2018-03-22T05:23:39.317Z,12.13
2018-03-22T05:26:06.847Z,12.17
2018-03-22T05:28:34.404Z,12.30
2018-03-22T05:31:01.949Z,12.47
2018-03-22T05:33:29.474Z,11.90
2018-03-22T05:35:57.038Z,13.37
2018-03-22T05:38:24.569Z,13.20
2018-03-22T05:40:52.138Z,13.67
2018-03-22T05:43:19.668Z,13.87
2018-03-22T05:45:47.900Z,13.63
2018-03-22T05:48:16.700Z,12.77
2018-03-22T05:50:45.118Z,13.17
2018-03-22T05:53:13.473Z,14.38
2018-03-22T05:55:44.779Z,13.00
2018-03-22T05:58:14.574Z,14.77
2018-03-22T06:00:42.562Z,15.77
2018-03-22T06:03:10.578Z,15.53
2018-03-22T06:05:38.288Z,15.70
2018-03-22T06:08:06.089Z,16.90
2018-03-22T06:10:35.380Z,16.30
2018-03-22T06:13:03.432Z,18.10
2018-03-22T06:15:31.389Z,18.53
2018-03-22T06:17:58.947Z,18.03
2018-03-22T06:20:26.506Z,17.13
2018-03-22T06:22:54.036Z,16.47
2018-03-22T06:25:21.628Z,17.47
2018-03-22T06:27:49.161Z,17.40
2018-03-22T06:30:16.716Z,19.67
2018-03-22T06:32:44.252Z,19.10
2018-03-22T06:35:11.836Z,18.80
2018-03-22T06:37:39.476Z,18.27
2018-03-22T06:40:07.093Z,16.73
2018-03-22T06:42:34.721Z,16.33
2018-03-22T06:45:02.281Z,14.53
2018-03-22T06:47:29.798Z,15.60
2018-03-22T06:49:57.436Z,16.23
2018-03-22T06:52:24.959Z,14.90
2018-03-22T06:54:52.519Z,16.30
2018-03-22T06:57:20.046Z,17.13
2018-03-22T06:59:47.613Z,16.53
2018-03-22T07:02:15.127Z,17.13
2018-03-22T07:04:42.690Z,16.03
2018-03-22T07:07:10.221Z,17.47
2018-03-22T07:09:37.802Z,16.07
2018-03-22T07:12:08.305Z,16.67
2018-03-22T07:14:36.030Z,16.67
2018-03-22T07:17:04.455Z,17.00
2018-03-22T07:19:31.973Z,17.80
2018-03-22T07:21:59.528Z,17.33
2018-03-22T07:24:27.061Z,19.30
2018-03-22T07:26:54.644Z,23.20
2018-03-22T07:29:22.160Z,23.30
2018-03-22T07:31:49.716Z,22.03
2018-03-22T07:34:17.244Z,18.67
2018-03-22T07:36:44.807Z,19.33
2018-03-22T07:39:12.357Z,19.35
2018-03-22T07:41:39.917Z,18.63
2018-03-22T07:44:12.289Z,18.10
2018-03-22T07:46:39.845Z,19.43
2018-03-22T07:49:07.358Z,18.83
2018-03-22T07:51:34.920Z,19.03
2018-03-22T07:54:02.441Z,19.08
2018-03-22T07:56:30.008Z,18.10
2018-03-22T07:58:57.600Z,19.17
2018-03-22T08:01:25.170Z,19.37
2018-03-22T08:03:52.704Z,18.53
2018-03-22T08:06:20.260Z,18.75
2018-03-22T08:08:47.771Z,19.63
2018-03-22T08:11:15.473Z,18.48
2018-03-22T08:13:43.004Z,19.73
2018-03-22T08:16:10.583Z,19.80
2018-03-22T08:18:38.108Z,19.27
2018-03-22T08:21:05.662Z,19.00
2018-03-22T08:23:33.195Z,15.77
2018-03-22T08:26:00.848Z,17.43
2018-03-22T08:28:28.407Z,18.40
2018-03-22T08:30:55.959Z,17.27
2018-03-22T08:33:23.553Z,16.97
2018-03-22T08:35:55.101Z,18.70
2018-03-22T08:38:24.285Z,17.30
2018-03-22T08:40:55.511Z,19.70
2018-03-22T08:43:24.384Z,18.95
2018-03-22T08:45:52.463Z,18.17
2018-03-22T08:48:24.320Z,16.95
2018-03-22T08:50:54.925Z,17.35
2018-03-22T08:53:23.724Z,18.60
2018-03-22T08:55:52.353Z,15.50
2018-03-22T08:58:22.059Z,19.10
2018-03-22T09:00:49.728Z,20.23
2018-03-22T09:03:19.165Z,18.57
2018-03-22T09:05:47.554Z,16.98
2018-03-22T09:08:16.830Z,21.00
2018-03-22T09:10:45.994Z,21.10
2018-03-22T09:13:13.603Z,21.70
2018-03-22T09:15:45.014Z,21.35
2018-03-22T09:18:14.340Z,21.00
2018-03-22T09:20:43.272Z,19.87
2018-03-22T09:23:12.477Z,20.57
2018-03-22T09:25:40.052Z,24.70
2018-03-22T09:28:07.768Z,23.07
2018-03-22T09:30:38.145Z,24.97
2018-03-22T09:33:08.452Z,25.80
2018-03-22T09:35:36.322Z,23.87
2018-03-22T09:38:03.968Z,26.80
2018-03-22T09:40:31.536Z,26.12
2018-03-22T09:42:59.252Z,29.07
2018-03-22T09:45:28.326Z,28.02
2018-03-22T09:47:56.219Z,28.77
2018-03-22T09:50:23.775Z,30.75
2018-03-22T09:52:51.348Z,30.60
2018-03-22T09:55:18.951Z,33.03
2018-03-22T09:57:46.502Z,27.17
2018-03-22T10:00:14.032Z,31.07
2018-03-22T10:02:41.586Z,31.27
2018-03-22T10:05:09.121Z,32.97
2018-03-22T10:07:36.742Z,34.10
2018-03-22T10:10:04.272Z,35.67
2018-03-22T10:12:31.890Z,35.50
2018-03-22T10:14:59.412Z,38.40
2018-03-22T10:17:27.117Z,38.05
2018-03-22T10:19:56.021Z,35.33
2018-03-22T10:22:28.760Z,35.03
2018-03-22T10:25:00.808Z,34.25
2018-03-22T10:27:31.279Z,33.57
2018-03-22T10:30:02.308Z,31.27
2018-03-22T10:32:30.658Z,31.42
2018-03-22T10:35:00.243Z,29.57
2018-03-22T10:37:33.315Z,29.67
2018-03-22T10:40:02.575Z,31.12
2018-03-22T10:42:33.302Z,30.60
2018-03-22T10:45:03.501Z,30.10
2018-03-22T10:47:35.471Z,28.35
2018-03-22T10:50:04.372Z,27.33
2018-03-22T10:52:35.335Z,25.67
2018-03-22T10:55:06.664Z,29.02
2018-03-22T10:57:35.406Z,30.60
2018-03-22T11:00:04.542Z,33.07
2018-03-22T11:02:40.482Z,34.90
2018-03-22T11:05:08.142Z,27.73
2018-03-22T11:07:37.866Z,25.50
2018-03-22T11:10:06.419Z,22.20
2018-03-22T11:12:37.886Z,19.67
2018-03-22T11:15:06.992Z,19.23
2018-03-22T11:17:36.305Z,20.77
2018-03-22T11:20:05.656Z,21.85
2018-03-22T11:22:33.971Z,23.20
2018-03-22T11:25:02.763Z,23.27
2018-03-22T11:27:34.307Z,21.43
2018-03-22T11:30:01.888Z,18.00
2018-03-22T11:32:34.081Z,20.17
2018-03-22T11:35:05.798Z,23.83
2018-03-22T11:37:36.954Z,19.03
2018-03-22T11:40:05.103Z,20.62
2018-03-22T11:42:34.242Z,24.55
2018-03-22T11:45:03.111Z,24.30
2018-03-22T11:47:30.953Z,21.37
2018-03-22T11:49:58.883Z,22.33
2018-03-22T11:52:26.490Z,16.70
2018-03-22T11:54:54.056Z,25.70
2018-03-22T11:57:21.593Z,22.17
2018-03-22T11:59:49.146Z,20.57
2018-03-22T12:02:16.795Z,15.05
2018-03-22T12:04:44.597Z,22.27
2018-03-22T12:07:12.127Z,20.65
2018-03-22T12:09:39.681Z,19.98
2018-03-22T12:12:07.204Z,13.00
2018-03-22T12:14:34.768Z,20.37
2018-03-22T12:17:02.459Z,18.60
2018-03-22T12:19:30.014Z,20.63
2018-03-22T12:21:57.853Z,19.98
2018-03-22T12:24:25.415Z,20.33
2018-03-22T12:26:53.291Z,21.50
2018-03-22T12:29:20.896Z,20.27
2018-03-22T12:31:48.441Z,18.33
2018-03-22T12:34:16.003Z,17.67
2018-03-22T12:36:43.587Z,21.90
2018-03-22T12:39:11.149Z,16.80
2018-03-22T12:41:38.706Z,16.10
2018-03-22T12:44:06.265Z,14.32
2018-03-22T12:46:33.840Z,17.80
2018-03-22T12:49:01.391Z,20.27
2018-03-22T12:51:28.914Z,20.80
2018-03-22T12:53:56.487Z,14.87
2018-03-22T12:56:24.011Z,17.47
2018-03-22T12:58:51.565Z,19.17
2018-03-22T13:01:19.106Z,21.90
2018-03-22T13:03:46.655Z,22.53
2018-03-22T13:06:14.171Z,23.67
2018-03-22T13:08:41.751Z,21.20
2018-03-22T13:11:11.931Z,22.58
2018-03-22T13:13:39.736Z,21.13
2018-03-22T13:16:10.473Z,21.73
2018-03-22T13:18:40.184Z,21.65
2018-03-22T13:21:08.161Z,21.87
2018-03-22T13:23:35.708Z,22.87
2018-03-22T13:26:06.976Z,23.70
2018-03-22T13:28:37.336Z,27.23
2018-03-22T13:31:09.476Z,24.80
2018-03-22T13:33:39.017Z,23.70
2018-03-22T13:36:08.103Z,24.73
2018-03-22T13:38:40.466Z,20.60
2018-03-22T13:41:10.115Z,21.73
2018-03-22T13:43:44.442Z,20.40
2018-03-22T13:46:13.013Z,20.43
2018-03-22T13:48:41.616Z,14.37
2018-03-22T13:51:14.299Z,15.93
2018-03-22T13:53:45.420Z,19.47
2018-03-22T13:56:15.917Z,13.67
2018-03-22T13:58:50.097Z,15.27
2018-03-22T14:01:21.453Z,15.57
2018-03-22T14:03:51.738Z,16.83
2018-03-22T14:06:22.694Z,17.93
2018-03-22T14:08:52.479Z,13.83
2018-03-22T14:11:23.684Z,15.50
2018-03-22T14:13:53.651Z,17.10
2018-03-22T14:16:24.368Z,17.43
2018-03-22T14:18:55.269Z,18.30
2018-03-22T14:21:24.774Z,17.67
2018-03-22T14:23:53.601Z,13.63
2018-03-22T14:26:21.245Z,17.00
2018-03-22T14:28:51.784Z,14.77
2018-03-22T14:31:21.957Z,16.55
2018-03-22T14:33:52.435Z,12.87
2018-03-22T14:36:22.782Z,13.77
2018-03-22T14:38:52.092Z,13.53
2018-03-22T14:41:23.796Z,11.67
2018-03-22T14:43:53.317Z,15.17
2018-03-22T14:46:22.704Z,15.33
2018-03-22T14:48:52.353Z,13.70
2018-03-22T14:51:22.500Z,12.77
2018-03-22T14:53:52.341Z,11.80
2018-03-22T14:56:23.078Z,15.63
2018-03-22T14:58:53.585Z,15.63
2018-03-22T15:01:26.376Z,13.83
2018-03-22T15:03:55.470Z,15.50
2018-03-22T15:06:26.235Z,16.73
2018-03-22T15:08:55.690Z,17.90
2018-03-22T15:11:26.664Z,19.13
2018-03-22T15:13:56.045Z,17.07
2018-03-22T15:16:26.179Z,16.43
2018-03-22T15:18:54.226Z,18.10
2018-03-22T15:21:25.727Z,16.10
2018-03-22T15:23:55.348Z,15.33
2018-03-22T15:26:23.557Z,14.20
2018-03-22T15:28:53.952Z,14.37
2018-03-22T15:31:22.008Z,17.17
2018-03-22T15:33:54.729Z,14.90
2018-03-22T15:36:27.623Z,17.00
2018-03-22T15:38:57.192Z,16.10
2018-03-22T15:41:28.645Z,14.57
2018-03-22T15:43:56.682Z,14.80
2018-03-22T15:46:27.632Z,14.83
2018-03-22T15:48:58.349Z,15.63
2018-03-22T15:51:26.552Z,15.18
2018-03-22T15:53:56.804Z,18.90
2018-03-22T15:56:24.955Z,20.07
2018-03-22T15:58:55.509Z,16.30
2018-03-22T16:01:25.666Z,17.37
2018-03-22T16:03:57.966Z,17.90
2018-03-22T16:06:29.095Z,19.73
2018-03-22T16:08:58.484Z,19.50
2018-03-22T16:11:34.547Z,17.62
2018-03-22T16:14:04.938Z,20.88
2018-03-22T16:16:33.899Z,16.73
2018-03-22T16:19:01.815Z,18.60
2018-03-22T16:21:30.260Z,19.50
2018-03-22T16:24:00.565Z,18.33
2018-03-22T16:26:31.399Z,19.27
2018-03-22T16:28:59.912Z,18.73
2018-03-22T16:31:30.442Z,19.33
2018-03-22T16:33:58.137Z,19.20
2018-03-22T16:36:28.884Z,19.63
2018-03-22T16:38:58.028Z,21.93
2018-03-22T16:41:26.320Z,19.93
2018-03-22T16:43:54.931Z,18.27
2018-03-22T16:46:22.504Z,17.43
2018-03-22T16:48:53.304Z,18.70
2018-03-22T16:51:22.411Z,19.63
2018-03-22T16:53:51.574Z,20.40
2018-03-22T16:56:22.280Z,18.90
2018-03-22T16:58:49.979Z,19.07
2018-03-22T17:01:20.091Z,19.57
2018-03-22T17:03:50.942Z,22.93
2018-03-22T17:06:18.840Z,21.73
2018-03-22T17:08:46.531Z,23.17
2018-03-22T17:11:15.985Z,22.37
2018-03-22T17:13:45.028Z,23.17
2018-03-22T17:16:14.753Z,22.37
2018-03-22T17:18:42.373Z,24.27
2018-03-22T17:21:12.582Z,23.60
2018-03-22T17:23:40.216Z,23.17
2018-03-22T17:26:08.558Z,25.47
2018-03-22T17:28:36.245Z,26.93
2018-03-22T17:31:05.689Z,25.87
2018-03-22T17:33:36.445Z,26.23
2018-03-22T17:36:04.708Z,24.20
2018-03-22T17:38:36.226Z,26.87
2018-03-22T17:41:05.407Z,22.70
2018-03-22T17:43:32.996Z,24.93
2018-03-22T17:46:04.143Z,24.80
2018-03-22T17:48:32.539Z,23.70
2018-03-22T17:51:01.004Z,23.87
2018-03-22T17:53:30.316Z,24.73
2018-03-22T17:56:01.899Z,24.20
2018-03-22T17:58:30.536Z,22.30
2018-03-22T18:01:00.506Z,25.30
2018-03-22T18:03:28.441Z,23.70
2018-03-22T18:05:56.224Z,25.63
2018-03-22T18:08:25.972Z,34.80
2018-03-22T18:11:00.580Z,37.23
2018-03-22T18:13:28.525Z,35.33
2018-03-22T18:16:02.317Z,36.77
2018-03-22T18:18:30.119Z,28.60
2018-03-22T18:21:00.585Z,36.50
2018-03-22T18:23:30.835Z,30.37
2018-03-22T18:25:58.406Z,37.80
2018-03-22T18:28:28.793Z,27.17
2018-03-22T18:30:58.474Z,31.27
2018-03-22T18:33:29.260Z,27.87
2018-03-22T18:36:00.057Z,31.37
2018-03-22T18:38:29.278Z,33.47
2018-03-22T18:40:57.423Z,40.00
2018-03-22T18:43:25.115Z,43.40
2018-03-22T18:45:53.830Z,41.70
2018-03-22T18:48:22.520Z,47.13
2018-03-22T18:50:50.042Z,51.57
2018-03-22T18:53:20.128Z,51.43
2018-03-22T18:55:54.478Z,38.97
2018-03-22T18:58:22.050Z,35.93
2018-03-22T19:00:49.579Z,42.07
2018-03-22T19:03:17.144Z,47.13
2018-03-22T19:05:44.673Z,40.35
2018-03-22T19:08:12.242Z,34.33
2018-03-22T19:10:39.761Z,47.87
2018-03-22T19:13:07.311Z,44.53
2018-03-22T19:15:34.847Z,49.17
2018-03-22T19:18:02.419Z,38.77
2018-03-22T19:20:29.944Z,39.20
2018-03-22T19:22:57.528Z,37.53
2018-03-22T19:25:26.693Z,42.33
2018-03-22T19:27:54.578Z,42.00
2018-03-22T19:30:22.167Z,41.40
2018-03-22T19:32:49.716Z,42.53
2018-03-22T19:35:17.461Z,62.37
2018-03-22T19:37:45.171Z,46.37
2018-03-22T19:40:12.711Z,47.97
2018-03-22T19:42:40.288Z,50.60
2018-03-22T19:45:07.824Z,44.17
2018-03-22T19:47:35.390Z,50.77
2018-03-22T19:50:02.907Z,56.33
2018-03-22T19:52:30.795Z,59.78
2018-03-22T19:54:58.329Z,53.97
2018-03-22T19:57:26.076Z,43.13
2018-03-22T19:59:53.603Z,51.83
2018-03-22T20:02:21.201Z,41.80
2018-03-22T20:04:48.707Z,45.33
2018-03-22T20:07:17.908Z,41.23
2018-03-22T20:09:48.744Z,48.03
2018-03-22T20:12:17.302Z,43.17
2018-03-22T20:14:45.079Z,43.93
2018-03-22T20:17:17.190Z,45.33
2018-03-22T20:19:45.203Z,54.00
2018-03-22T20:22:17.310Z,43.38
2018-03-22T20:24:44.930Z,52.10
2018-03-22T20:27:12.967Z,58.13
2018-03-22T20:29:40.810Z,52.20
2018-03-22T20:32:08.332Z,51.77
2018-03-22T20:34:35.883Z,63.67
2018-03-22T20:37:04.397Z,66.73
2018-03-22T20:39:32.763Z,51.10
2018-03-22T20:42:00.382Z,66.20
2018-03-22T20:44:28.296Z,67.73
2018-03-22T20:46:56.024Z,72.20
2018-03-22T20:49:23.808Z,59.27
2018-03-22T20:51:51.359Z,66.93
2018-03-22T20:54:18.933Z,50.97
2018-03-22T20:56:46.464Z,53.90
2018-03-22T20:59:14.012Z,50.20
2018-03-22T21:01:41.539Z,46.83
2018-03-22T21:04:09.117Z,49.70
2018-03-22T21:06:36.646Z,56.93
2018-03-22T21:09:04.218Z,50.93
2018-03-22T21:11:31.769Z,50.50
2018-03-22T21:13:59.347Z,48.43
2018-03-22T21:16:26.879Z,50.80
2018-03-22T21:18:54.465Z,61.20
2018-03-22T21:21:21.992Z,59.33
2018-03-22T21:23:49.568Z,56.53
2018-03-22T21:26:17.106Z,53.53
2018-03-22T21:28:44.840Z,50.70
2018-03-22T21:31:12.388Z,46.63
2018-03-22T21:33:39.943Z,50.23
2018-03-22T21:36:07.475Z,44.77
2018-03-22T21:38:35.069Z,48.47
2018-03-22T21:41:02.624Z,47.70
2018-03-22T21:43:30.168Z,47.10
2018-03-22T21:45:57.690Z,49.20
2018-03-22T21:48:25.256Z,80.10
2018-03-22T21:50:52.855Z,56.47
2018-03-22T21:53:21.123Z,48.60
2018-03-22T21:55:51.156Z,51.45
2018-03-22T21:58:20.540Z,55.92
2018-03-22T22:00:50.518Z,50.07
2018-03-22T22:03:22.464Z,52.88
2018-03-22T22:05:51.349Z,50.20
2018-03-22T22:08:23.047Z,48.60
2018-03-22T22:10:53.718Z,58.60
2018-03-22T22:13:24.380Z,65.75
2018-03-22T22:15:53.730Z,55.53
2018-03-22T22:18:23.158Z,53.10
2018-03-22T22:20:52.619Z,56.07
2018-03-22T22:23:20.466Z,58.70
2018-03-22T22:25:51.618Z,55.83
2018-03-22T22:28:19.276Z,60.92
2018-03-22T22:30:47.420Z,62.50
2018-03-22T22:33:17.158Z,66.90
2018-03-22T22:35:44.817Z,68.20
2018-03-22T22:38:12.655Z,62.78
2018-03-22T22:40:40.797Z,58.97
2018-03-22T22:43:12.685Z,61.78
2018-03-22T22:45:41.548Z,54.83
2018-03-22T22:48:09.067Z,63.97
2018-03-22T22:50:37.612Z,65.73
2018-03-22T22:53:05.167Z,71.07
2018-03-22T22:55:33.372Z,72.30
2018-03-22T22:58:03.146Z,65.18
2018-03-22T23:00:31.099Z,75.80
2018-03-22T23:02:59.057Z,74.17
2018-03-22T23:05:26.628Z,74.03
2018-03-22T23:07:54.153Z,65.53
2018-03-22T23:10:22.221Z,70.55
2018-03-22T23:12:52.583Z,72.57
2018-03-22T23:15:21.472Z,74.70
2018-03-22T23:17:49.515Z,82.63
2018-03-22T23:20:17.924Z,63.13
2018-03-22T23:22:46.215Z,63.60
2018-03-22T23:25:14.387Z,60.90
2018-03-22T23:27:42.470Z,59.20
2018-03-22T23:30:10.657Z,65.93
2018-03-22T23:32:38.188Z,55.57
2018-03-22T23:35:06.619Z,64.13
2018-03-22T23:37:35.516Z,70.80
2018-03-22T23:40:03.724Z,68.77
2018-03-22T23:42:33.633Z,64.65
2018-03-22T23:45:01.559Z,76.83
2018-03-22T23:47:29.355Z,68.13
2018-03-22T23:49:57.335Z,73.57
2018-03-22T23:52:25.815Z,79.73
2018-03-22T23:54:53.756Z,67.07
2018-03-22T23:57:21.351Z,73.43
2018-03-22T23:59:56.549Z,83.63
